Time;durP1;ratioP1;P1;durP2;ratioP2;P2;SDS_P1;SDS_P2;PMS_P1;PMS_P2;Temp;Humidity;BMP_temperature;BMP_pressure;BME280_temperature;BME280_humidity;BME280_pressure;Samples;Min_cycle;Max_cycle;Signal;HPM_P1;HPM_P2
2022/11/11 00:01:07;;;;;;;12.77;10.25;;;10.30;99.90;;;;;;4974153;28;20050;-76
2022/11/11 00:03:33;;;;;;;19.88;10.70;;;10.30;99.90;;;;;;4957544;28;20405;-76
2022/11/11 00:06:14;;;;;;;17.27;10.65;;;10.30;99.90;;;;;;4965517;28;20039;-76
2022/11/11 00:08:40;;;;;;;14.35;10.43;;;10.30;99.90;;;;;;4973922;28;20077;-76
2022/11/11 00:11:11;;;;;;;15.80;11.18;;;10.30;99.90;;;;;;4970347;28;20039;-77
2022/11/11 00:13:38;;;;;;;16.08;10.77;;;10.30;99.90;;;;;;4961654;28;20066;-77
2022/11/11 00:16:22;;;;;;;15.40;11.00;;;10.30;99.90;;;;;;4954504;28;20046;-76
2022/11/11 00:27:09;;;;;;;14.93;10.32;;;10.40;99.90;;;;;;4956353;28;20516;-76
2022/11/11 00:29:36;;;;;;;14.23;11.82;;;10.40;99.90;;;;;;4930705;28;20493;-76
2022/11/11 00:37:32;;;;;;;14.30;10.95;;;10.40;99.90;;;;;;4953692;28;20069;-76
2022/11/11 00:39:58;;;;;;;16.70;11.15;;;10.40;99.90;;;;;;4956658;28;20039;-76
2022/11/11 00:42:23;;;;;;;15.02;11.68;;;10.40;99.90;;;;;;4956435;28;20059;-76
2022/11/11 00:44:49;;;;;;;14.80;11.23;;;10.40;99.90;;;;;;4973269;28;20046;-76
2022/11/11 00:52:46;;;;;;;18.55;11.65;;;10.30;99.90;;;;;;4957001;28;20049;-76
2022/11/11 00:55:13;;;;;;;16.60;11.20;;;10.30;99.90;;;;;;4970714;28;20039;-77
2022/11/11 00:57:39;;;;;;;16.23;11.80;;;10.30;99.90;;;;;;4956059;28;20050;-76
2022/11/11 01:00:05;;;;;;;14.90;11.20;;;10.30;99.90;;;;;;4956703;28;20045;-76
2022/11/11 01:02:30;;;;;;;18.95;11.50;;;10.20;99.90;;;;;;4944952;29;20090;-76
2022/11/11 01:04:56;;;;;;;13.13;11.73;;;10.10;99.90;;;;;;4968437;28;20047;-76
2022/11/11 01:07:22;;;;;;;18.50;12.00;;;10.10;99.90;;;;;;4972099;28;20034;-77
2022/11/11 01:09:48;;;;;;;18.40;12.77;;;10.10;99.90;;;;;;4940369;28;20038;-76
2022/11/11 01:12:14;;;;;;;16.55;13.70;;;10.00;99.90;;;;;;4956714;28;20130;-75
2022/11/11 01:14:40;;;;;;;19.23;12.07;;;10.00;99.90;;;;;;4971913;28;20101;-76
2022/11/11 01:17:06;;;;;;;17.10;12.57;;;9.90;99.90;;;;;;4956459;28;20046;-76
2022/11/11 01:19:32;;;;;;;20.67;13.02;;;9.90;99.90;;;;;;4956534;28;20035;-76
2022/11/11 01:21:58;;;;;;;18.95;13.63;;;9.80;99.90;;;;;;4965158;28;20126;-76
2022/11/11 01:24:24;;;;;;;15.48;13.82;;;9.80;99.90;;;;;;4931778;28;20051;-76
2022/11/11 01:26:49;;;;;;;21.50;15.38;;;9.70;99.90;;;;;;4956529;28;20038;-76
2022/11/11 01:29:15;;;;;;;21.00;15.18;;;9.70;99.90;;;;;;4954168;28;20097;-76
2022/11/11 01:31:40;;;;;;;18.88;15.57;;;9.70;99.90;;;;;;4968363;28;20504;-76
2022/11/11 01:34:06;;;;;;;21.23;15.07;;;9.70;99.90;;;;;;4953409;29;20097;-76
2022/11/11 01:36:32;;;;;;;19.67;15.07;;;9.60;99.90;;;;;;4971085;28;20638;-76
2022/11/11 01:38:59;;;;;;;21.88;15.57;;;9.60;99.90;;;;;;4969086;28;20126;-76
2022/11/11 01:41:34;;;;;;;22.63;15.63;;;9.60;99.90;;;;;;4969115;28;20043;-76
2022/11/11 01:44:13;;;;;;;20.50;16.67;;;9.50;99.90;;;;;;4940617;28;20046;-77
2022/11/11 01:46:55;;;;;;;21.40;16.70;;;9.50;99.90;;;;;;4958848;28;20135;-76
2022/11/11 01:49:54;;;;;;;23.90;18.52;;;9.40;99.90;;;;;;4922085;28;20425;-76
2022/11/11 01:52:31;;;;;;;21.67;17.95;;;9.40;99.90;;;;;;4945145;28;20568;-76
2022/11/11 01:55:19;;;;;;;24.17;18.17;;;9.40;99.90;;;;;;4936696;28;20050;-76
2022/11/11 01:58:03;;;;;;;24.60;19.30;;;9.30;99.90;;;;;;4936517;29;20047;-76
2022/11/11 02:00:30;;;;;;;22.23;19.83;;;9.30;99.90;;;;;;4963944;28;20049;-76
2022/11/11 02:03:07;;;;;;;25.98;21.83;;;9.30;99.90;;;;;;4970840;28;20089;-76
2022/11/11 02:05:42;;;;;;;25.50;21.02;;;9.30;99.90;;;;;;4961180;28;20035;-76
2022/11/11 02:08:33;;;;;;;28.50;22.00;;;9.30;99.90;;;;;;4962363;28;20039;-76
2022/11/11 02:11:06;;;;;;;23.88;20.83;;;9.30;99.90;;;;;;4972151;28;20109;-76
2022/11/11 02:16:20;;;;;;;27.38;22.77;;;9.30;99.90;;;;;;4953464;28;20101;-76
2022/11/11 02:18:45;;;;;;;29.90;23.08;;;9.30;99.90;;;;;;4926226;29;20039;-76
2022/11/11 02:21:17;;;;;;;30.90;24.55;;;9.20;99.90;;;;;;4936517;29;20038;-76
2022/11/11 02:23:57;;;;;;;31.52;24.17;;;9.20;99.90;;;;;;4936509;29;20040;-76
2022/11/11 02:26:24;;;;;;;27.17;23.42;;;9.20;99.90;;;;;;4936357;28;20075;-76
2022/11/11 02:28:51;;;;;;;30.83;23.95;;;9.20;99.90;;;;;;4942560;28;20083;-76
2022/11/11 02:31:17;;;;;;;32.15;25.35;;;9.20;99.90;;;;;;4969459;28;20035;-76
2022/11/11 02:33:43;;;;;;;29.42;25.13;;;9.20;99.90;;;;;;4971150;28;20038;-76
2022/11/11 02:36:13;;;;;;;31.90;25.73;;;9.20;99.90;;;;;;4955221;28;20047;-76
2022/11/11 02:38:39;;;;;;;32.40;24.85;;;9.20;99.90;;;;;;4950383;29;20051;-76
2022/11/11 02:43:49;;;;;;;31.77;25.42;;;9.20;99.90;;;;;;4946445;29;20149;-76
2022/11/11 02:46:14;;;;;;;33.58;26.52;;;9.20;99.90;;;;;;4952120;28;20090;-76
2022/11/11 02:48:40;;;;;;;34.53;25.42;;;9.20;99.90;;;;;;4951908;29;20489;-76
2022/11/11 02:51:07;;;;;;;32.30;26.95;;;9.20;99.90;;;;;;4952258;29;20067;-76
2022/11/11 02:53:33;;;;;;;31.15;26.55;;;9.20;99.90;;;;;;4962251;28;20576;-76
2022/11/11 02:55:58;;;;;;;32.05;25.95;;;9.10;99.90;;;;;;4962505;28;20070;-76
2022/11/11 02:58:24;;;;;;;34.85;26.40;;;9.10;99.90;;;;;;4967135;28;20378;-76
2022/11/11 03:00:49;;;;;;;29.88;26.67;;;9.10;99.90;;;;;;4952115;29;20061;-76
2022/11/11 03:03:15;;;;;;;34.63;26.75;;;9.10;99.90;;;;;;4957097;28;20047;-76
2022/11/11 03:05:40;;;;;;;37.55;28.63;;;9.10;99.90;;;;;;4963290;28;20046;-76
2022/11/11 03:08:06;;;;;;;35.40;28.02;;;9.10;99.90;;;;;;4952030;29;20035;-75
2022/11/11 03:10:32;;;;;;;37.30;26.92;;;9.00;99.90;;;;;;4959980;28;20036;-76
2022/11/11 03:12:57;;;;;;;35.58;27.23;;;9.00;99.90;;;;;;4955177;28;20509;-76
2022/11/11 03:15:23;;;;;;;37.15;28.02;;;9.00;99.90;;;;;;4967779;28;20042;-76
2022/11/11 03:17:48;;;;;;;39.38;27.92;;;9.00;99.90;;;;;;4970649;28;20043;-75
2022/11/11 03:23:12;;;;;;;36.13;27.65;;;9.00;99.90;;;;;;4946949;28;20046;-76
2022/11/11 03:25:47;;;;;;;37.63;28.85;;;9.00;99.90;;;;;;4942501;28;20049;-76
2022/11/11 03:28:14;;;;;;;41.63;28.95;;;9.00;99.90;;;;;;4957523;28;20042;-75
2022/11/11 03:30:45;;;;;;;37.97;28.98;;;8.90;99.90;;;;;;4955375;29;20098;-76
2022/11/11 03:33:11;;;;;;;41.35;28.92;;;8.90;99.90;;;;;;4955306;29;20047;-76
2022/11/11 03:35:37;;;;;;;39.72;29.13;;;8.90;99.90;;;;;;4951244;28;20048;-76
2022/11/11 03:38:23;;;;;;;40.72;29.30;;;8.90;99.90;;;;;;4953623;29;20043;-76
2022/11/11 03:40:56;;;;;;;39.65;30.40;;;8.90;99.90;;;;;;4925940;29;20043;-76
2022/11/11 03:43:25;;;;;;;41.85;30.20;;;8.90;99.90;;;;;;4955279;29;20070;-76
2022/11/11 03:45:52;;;;;;;43.85;30.85;;;8.90;99.90;;;;;;4943206;28;20117;-76
2022/11/11 03:48:17;;;;;;;41.72;31.27;;;8.90;99.90;;;;;;4949704;28;20062;-75
2022/11/11 03:50:43;;;;;;;45.15;30.73;;;9.00;99.90;;;;;;4956284;28;20038;-76
2022/11/11 03:53:09;;;;;;;40.65;32.17;;;9.00;99.90;;;;;;4969851;28;20110;-76
2022/11/11 03:55:35;;;;;;;44.65;32.97;;;9.10;99.90;;;;;;4959265;23;21060;-74
2022/11/11 03:58:01;;;;;;;46.00;32.90;;;9.10;99.90;;;;;;4977246;28;20038;-75
2022/11/11 04:00:28;;;;;;;46.22;32.60;;;9.20;99.90;;;;;;4967388;28;20050;-75
2022/11/11 04:11:40;;;;;;;42.53;32.95;;;9.30;99.90;;;;;;4957999;28;20382;-76
2022/11/11 04:16:56;;;;;;;40.67;31.45;;;9.40;99.90;;;;;;4973597;28;20038;-75
2022/11/11 04:22:06;;;;;;;50.35;33.40;;;9.50;99.90;;;;;;4975982;28;20236;-75
2022/11/11 04:27:18;;;;;;;42.67;30.85;;;9.50;99.90;;;;;;4991795;28;20042;-75
2022/11/11 04:29:45;;;;;;;44.50;33.13;;;9.60;99.90;;;;;;4974423;28;20133;-76
2022/11/11 04:35:00;;;;;;;45.28;32.65;;;9.70;99.90;;;;;;4992919;28;20137;-76
2022/11/11 04:37:29;;;;;;;42.60;31.67;;;9.70;99.90;;;;;;4960086;28;20168;-76
2022/11/11 04:42:39;;;;;;;38.67;31.23;;;9.70;99.90;;;;;;4992294;28;20053;-75
2022/11/11 04:45:26;;;;;;;40.08;30.67;;;9.70;99.90;;;;;;4959847;28;20042;-75
2022/11/11 04:48:07;;;;;;;38.67;30.65;;;9.70;99.90;;;;;;4960137;28;20040;-75
2022/11/11 04:50:41;;;;;;;43.75;29.85;;;9.70;99.90;;;;;;4959346;28;20041;-75
2022/11/11 04:53:09;;;;;;;40.10;31.08;;;9.70;99.90;;;;;;4951969;28;20118;-75
2022/11/11 04:58:27;;;;;;;39.80;29.60;;;9.60;99.90;;;;;;4975017;28;20078;-76
2022/11/11 05:00:53;;;;;;;38.35;29.48;;;9.60;99.90;;;;;;4959604;28;20043;-76
2022/11/11 05:03:20;;;;;;;38.28;29.83;;;9.60;99.90;;;;;;4957646;28;20408;-75
2022/11/11 05:08:54;;;;;;;39.60;30.60;;;9.50;99.90;;;;;;4975903;28;20050;-75
2022/11/11 05:11:32;;;;;;;40.45;31.00;;;9.50;99.90;;;;;;4959009;28;20068;-75
2022/11/11 05:22:26;;;;;;;41.90;30.50;;;9.60;99.90;;;;;;4973011;28;19996;-75
2022/11/11 05:27:38;;;;;;;36.53;29.65;;;9.70;99.90;;;;;;4965659;28;20070;-76
2022/11/11 05:30:06;;;;;;;34.40;28.13;;;9.70;99.90;;;;;;4956094;28;20513;-76
2022/11/11 05:32:32;;;;;;;38.35;28.90;;;9.70;99.90;;;;;;4965454;28;20098;-76
2022/11/11 05:34:59;;;;;;;36.45;27.92;;;9.80;99.90;;;;;;4974027;28;20512;-75
2022/11/11 05:37:25;;;;;;;34.85;27.90;;;9.80;99.90;;;;;;4960030;28;20133;-76
2022/11/11 05:39:51;;;;;;;34.65;26.08;;;9.80;99.90;;;;;;4957900;28;20041;-76
2022/11/11 05:42:17;;;;;;;37.33;27.27;;;9.70;99.90;;;;;;4957215;28;20038;-76
2022/11/11 05:44:43;;;;;;;37.65;29.00;;;9.80;99.90;;;;;;4958585;28;20041;-76
2022/11/11 05:47:09;;;;;;;33.92;27.10;;;9.80;99.90;;;;;;4942526;28;20046;-76
2022/11/11 05:49:35;;;;;;;33.00;25.80;;;9.80;99.90;;;;;;4940359;28;20042;-75
2022/11/11 05:52:01;;;;;;;36.17;27.02;;;9.80;99.90;;;;;;4940573;28;20532;-75
2022/11/11 05:54:27;;;;;;;34.63;26.58;;;9.80;99.90;;;;;;4947254;28;20117;-75
2022/11/11 05:56:53;;;;;;;35.70;25.67;;;9.90;99.90;;;;;;4949221;28;20050;-75
2022/11/11 05:59:19;;;;;;;36.45;25.50;;;9.90;99.90;;;;;;4957231;28;20154;-75
2022/11/11 06:01:45;;;;;;;30.23;24.98;;;9.90;99.90;;;;;;4958084;28;20124;-76
2022/11/11 06:04:11;;;;;;;28.95;23.92;;;9.90;99.90;;;;;;4957574;28;20497;-76
2022/11/11 06:06:37;;;;;;;35.15;25.75;;;9.90;99.90;;;;;;4965296;28;20030;-76
2022/11/11 06:09:03;;;;;;;32.38;24.98;;;9.90;99.90;;;;;;4951537;28;20042;-76
2022/11/11 06:11:30;;;;;;;31.60;23.83;;;9.90;99.90;;;;;;4952157;28;20034;-75
2022/11/11 06:14:05;;;;;;;31.75;23.70;;;9.90;99.90;;;;;;4958863;28;20415;-78
2022/11/11 06:16:31;;;;;;;31.38;24.63;;;9.90;99.90;;;;;;4967960;28;20158;-76
2022/11/11 06:19:18;;;;;;;29.35;24.65;;;9.90;99.90;;;;;;4954997;28;20052;-77
2022/11/11 06:21:56;;;;;;;30.23;23.75;;;9.80;99.90;;;;;;4957473;28;20050;-76
2022/11/11 06:24:24;;;;;;;32.55;24.20;;;10.00;99.90;;;;;;4957891;28;20420;-78
2022/11/11 06:26:51;;;;;;;33.72;24.73;;;9.90;99.90;;;;;;4958336;28;20030;-77
2022/11/11 06:29:26;;;;;;;30.63;24.08;;;10.00;99.90;;;;;;4974125;28;20042;-80
2022/11/11 06:31:56;;;;;;;32.63;24.35;;;10.00;99.90;;;;;;4984800;28;20042;-77
2022/11/11 06:35:14;;;;;;;30.80;23.75;;;9.90;99.90;;;;;;4956519;28;20091;-80
2022/11/11 06:37:43;;;;;;;31.63;24.50;;;10.00;99.90;;;;;;4966348;28;20510;-79
2022/11/11 06:43:33;;;;;;;29.75;23.50;;;10.00;99.90;;;;;;4998862;28;20500;-82
2022/11/11 06:49:24;;;;;;;29.98;23.05;;;10.00;99.90;;;;;;4961975;28;20553;-80
2022/11/11 06:58:32;;;;;;;31.13;24.38;;;10.10;99.90;;;;;;5011113;28;20048;-79
2022/11/11 07:04:53;;;;;;;32.70;22.83;;;10.00;99.90;;;;;;4959083;28;20416;-80
2022/11/11 07:08:09;;;;;;;28.00;23.95;;;10.00;99.90;;;;;;4965188;28;20039;-79
2022/11/11 07:10:38;;;;;;;30.05;23.88;;;10.00;99.90;;;;;;5002000;23;20495;-78
2022/11/11 07:13:05;;;;;;;26.70;22.83;;;10.10;99.90;;;;;;5007061;28;20381;-78
2022/11/11 07:15:31;;;;;;;27.17;22.38;;;10.10;99.90;;;;;;5007859;28;20088;-78
2022/11/11 07:17:57;;;;;;;25.55;22.33;;;10.10;99.90;;;;;;5006005;28;20038;-78
2022/11/11 07:20:23;;;;;;;29.88;23.38;;;10.10;99.90;;;;;;5024141;28;20573;-78
2022/11/11 07:22:48;;;;;;;27.02;23.02;;;10.10;99.90;;;;;;5029809;28;20033;-78
2022/11/11 07:25:14;;;;;;;26.67;22.08;;;10.10;99.90;;;;;;5013133;28;20042;-78
2022/11/11 07:27:41;;;;;;;25.67;22.05;;;10.20;99.90;;;;;;5010918;28;20097;-77
2022/11/11 07:30:08;;;;;;;30.80;22.02;;;10.20;99.90;;;;;;4984434;28;20496;-75
2022/11/11 07:32:34;;;;;;;26.98;21.70;;;10.20;99.90;;;;;;5030898;28;20037;-77
2022/11/11 07:35:00;;;;;;;26.38;21.05;;;10.20;99.90;;;;;;5012573;28;20097;-77
2022/11/11 07:37:26;;;;;;;28.80;22.55;;;10.20;99.90;;;;;;4997941;28;20038;-77
2022/11/11 07:39:53;;;;;;;27.45;21.98;;;10.20;99.90;;;;;;5030725;28;20033;-77
2022/11/11 07:42:19;;;;;;;26.08;20.60;;;10.20;99.90;;;;;;4994351;28;20049;-77
2022/11/11 07:44:45;;;;;;;26.88;20.35;;;10.30;99.90;;;;;;5010207;28;20399;-77
2022/11/11 07:47:11;;;;;;;25.02;20.70;;;10.30;99.90;;;;;;5023248;28;20427;-77
2022/11/11 07:49:36;;;;;;;21.30;18.88;;;10.30;99.90;;;;;;5024304;28;20030;-79
2022/11/11 07:52:02;;;;;;;23.67;20.95;;;10.30;99.90;;;;;;4994090;28;20112;-78
2022/11/11 07:54:28;;;;;;;25.88;20.58;;;10.30;99.90;;;;;;5029812;28;20377;-76
2022/11/11 07:56:53;;;;;;;22.27;19.17;;;10.30;99.90;;;;;;5027742;28;20044;-76
2022/11/11 07:59:19;;;;;;;23.08;19.75;;;10.40;99.90;;;;;;5024533;28;20043;-76
2022/11/11 08:01:44;;;;;;;22.83;18.85;;;10.40;99.90;;;;;;5001036;28;20040;-77
2022/11/11 08:04:10;;;;;;;24.75;18.70;;;10.40;99.90;;;;;;4992121;28;20377;-76
2022/11/11 08:06:35;;;;;;;22.58;18.60;;;10.40;99.90;;;;;;5022966;28;20116;-76
2022/11/11 08:09:01;;;;;;;20.77;18.20;;;10.40;99.90;;;;;;5026691;28;20492;-76
2022/11/11 08:14:11;;;;;;;21.85;18.67;;;10.50;99.90;;;;;;5012191;28;20196;-76
2022/11/11 08:16:36;;;;;;;20.95;17.90;;;10.50;99.90;;;;;;5011303;28;20567;-76
2022/11/11 08:19:02;;;;;;;21.73;18.40;;;10.50;99.90;;;;;;4991624;28;20124;-76
2022/11/11 08:21:27;;;;;;;21.05;18.40;;;10.50;99.90;;;;;;5009877;28;20045;-76
2022/11/11 08:23:53;;;;;;;21.55;17.73;;;10.50;99.90;;;;;;5025599;28;20050;-76
2022/11/11 08:26:20;;;;;;;22.90;18.73;;;10.50;99.90;;;;;;4993957;28;20121;-75
2022/11/11 08:28:46;;;;;;;19.05;16.80;;;10.60;99.90;;;;;;5004705;28;20038;-76
2022/11/11 08:31:12;;;;;;;21.60;18.02;;;10.50;99.90;;;;;;5017391;28;20595;-76
2022/11/11 08:33:37;;;;;;;20.95;17.48;;;10.60;99.90;;;;;;5017607;28;20104;-75
2022/11/11 08:36:04;;;;;;;22.23;17.75;;;10.60;99.90;;;;;;5022220;28;20045;-75
2022/11/11 08:38:30;;;;;;;22.50;16.52;;;10.60;99.90;;;;;;5019932;28;20077;-75
2022/11/11 08:41:03;;;;;;;21.10;17.05;;;10.60;99.90;;;;;;5026253;28;20045;-76
2022/11/11 08:43:31;;;;;;;;;;;10.60;99.90;;;;;;5020833;28;20137;-76
2022/11/11 08:45:57;;;;;;;18.85;16.52;;;10.60;99.90;;;;;;5000986;28;19988;-76
2022/11/11 08:48:23;;;;;;;19.85;15.82;;;10.60;99.90;;;;;;5022029;28;20092;-76
2022/11/11 08:50:51;;;;;;;20.65;17.15;;;10.70;99.90;;;;;;4989621;28;20050;-76
2022/11/11 08:53:17;;;;;;;19.17;16.38;;;10.70;99.90;;;;;;5024569;28;20034;-76
2022/11/11 08:55:43;;;;;;;20.95;17.38;;;10.70;99.90;;;;;;5017808;28;20789;-76
2022/11/11 08:58:09;;;;;;;21.58;16.55;;;10.70;99.90;;;;;;5007784;28;20115;-77
2022/11/11 09:00:35;;;;;;;19.42;16.17;;;10.70;99.90;;;;;;5019751;28;20200;-77
2022/11/11 09:03:06;;;;;;;19.77;15.85;;;10.70;99.90;;;;;;5027810;28;20499;-77
2022/11/11 09:05:32;;;;;;;20.25;15.90;;;10.80;99.90;;;;;;5000714;28;20069;-75
2022/11/11 09:08:06;;;;;;;17.75;15.52;;;10.80;99.90;;;;;;5007851;28;20384;-76
2022/11/11 09:10:32;;;;;;;19.90;16.08;;;10.80;99.90;;;;;;5020846;28;20034;-76
2022/11/11 09:12:58;;;;;;;20.38;16.85;;;10.90;99.90;;;;;;4991714;28;20573;-76
2022/11/11 09:15:25;;;;;;;17.13;15.02;;;10.90;99.90;;;;;;4995303;28;20042;-75
2022/11/11 09:17:51;;;;;;;19.58;15.88;;;11.00;99.90;;;;;;4991982;28;20034;-76
2022/11/11 09:20:17;;;;;;;16.92;15.07;;;11.00;99.90;;;;;;4991911;28;20046;-76
2022/11/11 09:22:47;;;;;;;20.73;15.25;;;11.00;99.90;;;;;;4992031;28;20053;-75
2022/11/11 09:25:13;;;;;;;17.02;15.32;;;11.10;99.90;;;;;;5007638;28;20120;-76
2022/11/11 09:27:39;;;;;;;19.42;15.18;;;11.10;99.90;;;;;;4994822;28;20512;-75
2022/11/11 09:30:06;;;;;;;21.55;16.02;;;11.10;99.90;;;;;;5027972;28;20074;-76
2022/11/11 09:32:32;;;;;;;17.38;15.18;;;11.10;99.90;;;;;;4994098;28;20030;-76
2022/11/11 09:34:59;;;;;;;19.90;16.30;;;11.20;99.90;;;;;;5028010;28;20042;-75
2022/11/11 09:37:25;;;;;;;16.85;14.77;;;11.20;99.90;;;;;;5026161;28;20409;-75
2022/11/11 09:39:50;;;;;;;18.42;16.42;;;11.30;99.90;;;;;;4994937;28;20092;-75
2022/11/11 09:42:55;;;;;;;18.60;15.75;;;11.30;99.90;;;;;;5027937;28;20053;-76
2022/11/11 09:45:35;;;;;;;17.10;15.05;;;11.40;99.90;;;;;;5027722;28;20045;-76
2022/11/11 09:48:37;;;;;;;18.73;15.00;;;11.50;99.90;;;;;;5022889;28;20034;-76
2022/11/11 09:51:06;;;;;;;17.98;13.60;;;11.60;99.90;;;;;;5023773;28;20539;-76
2022/11/11 09:53:39;;;;;;;17.13;15.20;;;11.60;99.90;;;;;;5024292;28;20547;-75
2022/11/11 09:56:12;;;;;;;16.52;14.07;;;11.60;99.90;;;;;;5015950;28;20041;-75
2022/11/11 09:58:46;;;;;;;;;;;11.70;99.90;;;;;;4985722;28;20035;-76
2022/11/11 10:01:23;;;;;;;18.02;15.15;;;11.70;99.90;;;;;;5016395;28;19987;-76
2022/11/11 10:04:01;;;;;;;15.73;13.32;;;11.70;99.90;;;;;;5005660;28;20447;-76
2022/11/11 10:06:30;;;;;;;16.67;13.52;;;11.80;99.90;;;;;;5019385;28;20042;-75
2022/11/11 10:09:05;;;;;;;16.67;14.32;;;11.90;99.90;;;;;;5009831;28;20038;-76
2022/11/11 10:11:49;;;;;;;16.00;13.65;;;12.10;99.90;;;;;;5018873;28;20543;-75
2022/11/11 10:14:16;;;;;;;16.05;13.68;;;12.30;99.90;;;;;;5021845;28;20117;-76
2022/11/11 10:17:12;;;;;;;16.25;13.30;;;12.40;99.90;;;;;;5026032;28;20508;-76
2022/11/11 10:20:09;;;;;;;15.20;12.70;;;12.40;99.90;;;;;;5007264;28;20038;-75
2022/11/11 10:22:39;;;;;;;14.43;12.32;;;12.50;99.90;;;;;;4997503;28;20129;-76
2022/11/11 10:25:11;;;;;;;13.75;12.32;;;12.60;99.90;;;;;;5007197;28;20041;-76
2022/11/11 10:27:40;;;;;;;14.00;12.60;;;12.60;99.90;;;;;;5002483;28;20042;-77
2022/11/11 10:30:27;;;;;;;14.02;12.50;;;12.70;99.90;;;;;;5022617;28;20034;-75
2022/11/11 10:33:00;;;;;;;14.50;12.30;;;12.70;99.90;;;;;;5000612;28;20068;-76
2022/11/11 10:35:28;;;;;;;15.23;11.82;;;12.70;99.90;;;;;;5024795;28;20092;-75
2022/11/11 10:38:09;;;;;;;13.88;11.90;;;12.70;99.90;;;;;;5020869;28;20033;-75
2022/11/11 10:40:45;;;;;;;13.52;12.10;;;12.70;99.90;;;;;;5015747;28;20049;-76
2022/11/11 10:43:37;;;;;;;14.63;11.63;;;12.70;99.90;;;;;;5001476;28;20046;-76
2022/11/11 10:46:24;;;;;;;13.50;12.10;;;12.70;99.90;;;;;;5005626;28;20046;-76
2022/11/11 10:48:59;;;;;;;14.40;12.05;;;12.70;99.90;;;;;;5021103;28;20129;-76
2022/11/11 10:51:33;;;;;;;13.80;12.30;;;12.70;99.90;;;;;;5006121;28;20069;-76
2022/11/11 10:54:13;;;;;;;14.30;12.10;;;12.60;99.90;;;;;;5021054;28;20042;-76
2022/11/11 10:57:05;;;;;;;15.32;12.48;;;12.70;99.90;;;;;;5015197;28;20038;-76
2022/11/11 10:59:45;;;;;;;13.52;12.05;;;12.60;99.90;;;;;;5018719;28;20038;-76
2022/11/11 11:02:26;;;;;;;13.07;11.63;;;12.60;99.90;;;;;;5023567;28;20041;-76
2022/11/11 11:05:25;;;;;;;14.10;12.30;;;12.60;99.90;;;;;;4993685;28;20073;-76
2022/11/11 11:07:55;;;;;;;14.77;13.15;;;12.50;99.90;;;;;;4992832;28;20041;-75
2022/11/11 11:10:27;;;;;;;15.82;12.07;;;12.50;99.90;;;;;;5025301;28;20121;-75
2022/11/11 11:13:05;;;;;;;14.55;12.77;;;12.40;99.90;;;;;;5017899;28;20066;-75
2022/11/11 11:15:35;;;;;;;13.82;12.32;;;12.30;99.90;;;;;;5000613;28;20041;-75
2022/11/11 11:18:09;;;;;;;12.93;11.57;;;12.20;99.90;;;;;;4985404;28;20030;-75
2022/11/11 11:20:34;;;;;;;14.63;12.45;;;12.20;99.90;;;;;;5019314;28;20033;-75
2022/11/11 11:23:01;;;;;;;14.50;12.93;;;12.10;99.90;;;;;;4981003;28;20149;-75
2022/11/11 11:25:29;;;;;;;15.30;12.38;;;12.10;99.90;;;;;;5013421;28;20045;-76
2022/11/11 11:28:13;;;;;;;14.10;12.48;;;12.00;99.90;;;;;;5011552;28;20039;-75
2022/11/11 11:30:39;;;;;;;16.83;13.43;;;12.10;99.90;;;;;;5011910;28;20381;-75
2022/11/11 11:33:07;;;;;;;13.88;12.40;;;12.20;99.90;;;;;;5022998;28;20049;-75
2022/11/11 11:35:35;;;;;;;14.93;13.32;;;12.30;99.90;;;;;;5008470;28;20404;-76
2022/11/11 11:38:01;;;;;;;15.32;12.23;;;12.40;99.90;;;;;;5014158;28;20054;-75
2022/11/11 11:40:43;;;;;;;14.57;13.02;;;12.50;99.90;;;;;;5015072;28;20042;-74
2022/11/11 11:43:37;;;;;;;18.42;13.48;;;12.60;99.90;;;;;;5000790;28;20046;-75
2022/11/11 11:46:19;;;;;;;15.27;12.68;;;12.60;99.90;;;;;;4990944;28;20038;-76
2022/11/11 11:48:53;;;;;;;15.45;12.43;;;12.70;99.90;;;;;;5004913;28;20038;-76
2022/11/11 11:51:32;;;;;;;13.35;11.95;;;12.80;99.90;;;;;;5010240;28;20069;-77
2022/11/11 11:54:10;;;;;;;14.13;12.27;;;12.90;99.90;;;;;;5020843;28;20051;-76
2022/11/11 11:56:40;;;;;;;14.35;11.45;;;12.90;99.90;;;;;;5015522;28;20397;-75
2022/11/11 11:59:09;;;;;;;13.32;11.63;;;12.90;99.90;;;;;;5021784;28;20088;-75
2022/11/11 12:01:51;;;;;;;13.38;11.35;;;13.00;99.90;;;;;;5021653;28;20392;-75
2022/11/11 12:04:28;;;;;;;13.63;11.23;;;13.00;99.90;;;;;;5009927;28;20405;-74
2022/11/11 12:07:12;;;;;;;13.68;11.95;;;13.10;99.90;;;;;;5010157;28;20045;-75
2022/11/11 12:10:07;;;;;;;13.95;10.98;;;13.20;99.90;;;;;;5022158;28;20070;-75
2022/11/11 12:12:54;;;;;;;12.45;11.13;;;13.40;99.90;;;;;;5023700;28;20463;-76
2022/11/11 12:15:40;;;;;;;14.10;11.32;;;13.40;99.90;;;;;;5012231;28;20050;-76
2022/11/11 12:18:49;;;;;;;11.80;10.60;;;13.50;99.90;;;;;;5029081;28;20042;-76
2022/11/11 12:21:21;;;;;;;12.77;10.80;;;13.50;99.90;;;;;;4996783;28;20064;-75
2022/11/11 12:24:28;;;;;;;12.68;10.90;;;13.40;99.90;;;;;;5026767;28;20045;-75
2022/11/11 12:27:07;;;;;;;11.90;10.70;;;13.30;99.90;;;;;;4988438;28;20077;-76
2022/11/11 12:30:17;;;;;;;12.65;11.35;;;13.20;99.90;;;;;;4998019;28;20113;-74
2022/11/11 12:32:50;;;;;;;12.45;11.05;;;13.00;99.90;;;;;;4937146;29;20049;-75
2022/11/11 12:35:15;;;;;;;13.95;11.38;;;12.90;99.90;;;;;;4944334;29;20055;-75
2022/11/11 12:37:53;;;;;;;12.90;10.93;;;12.90;99.90;;;;;;4976137;28;20045;-75
2022/11/11 12:40:45;;;;;;;12.95;11.27;;;12.90;99.90;;;;;;5024834;28;20133;-76
2022/11/11 12:43:45;;;;;;;12.77;10.63;;;12.90;99.90;;;;;;5027839;28;20073;-77
2022/11/11 12:46:25;;;;;;;14.98;10.88;;;12.90;99.90;;;;;;5023730;28;20280;-77
2022/11/11 12:49:21;;;;;;;12.43;11.18;;;13.00;99.90;;;;;;5020115;28;20026;-75
2022/11/11 12:51:53;;;;;;;12.13;10.93;;;12.90;99.90;;;;;;5002826;28;20041;-74
2022/11/11 12:54:54;;;;;;;13.43;10.68;;;12.90;99.90;;;;;;5024343;28;20053;-75
2022/11/11 12:57:57;;;;;;;11.75;10.52;;;12.90;99.90;;;;;;5028382;28;20092;-74
2022/11/11 13:00:25;;;;;;;12.00;10.50;;;12.90;99.90;;;;;;4982772;28;20129;-74
2022/11/11 13:03:15;;;;;;;12.20;10.90;;;12.90;99.90;;;;;;5025951;28;20116;-74
2022/11/11 13:05:44;;;;;;;12.45;11.18;;;12.80;99.90;;;;;;5021662;28;20042;-74
2022/11/11 13:08:22;;;;;;;12.43;11.10;;;12.80;99.90;;;;;;5027037;28;20034;-74
2022/11/11 13:11:06;;;;;;;11.90;10.10;;;12.80;99.90;;;;;;5038217;23;20046;-73
2022/11/11 13:13:58;;;;;;;13.23;10.15;;;12.70;99.90;;;;;;4979454;28;20550;-74
2022/11/11 13:16:26;;;;;;;14.27;11.18;;;12.70;99.90;;;;;;4981562;28;20039;-74
2022/11/11 13:19:03;;;;;;;12.93;11.05;;;12.60;99.90;;;;;;4965595;28;20126;-74
2022/11/11 13:21:41;;;;;;;12.48;11.07;;;12.70;99.90;;;;;;4967133;28;20436;-74
2022/11/11 13:24:12;;;;;;;11.95;10.70;;;12.70;99.90;;;;;;4966786;28;20073;-74
2022/11/11 13:26:44;;;;;;;13.00;11.13;;;12.80;99.90;;;;;;4988045;28;20162;-74
2022/11/11 13:29:42;;;;;;;12.38;10.90;;;12.80;99.90;;;;;;4970088;28;20113;-74
2022/11/11 13:32:12;;;;;;;12.52;11.23;;;12.80;99.90;;;;;;4975017;28;20054;-74
2022/11/11 13:34:40;;;;;;;11.63;10.43;;;12.90;99.90;;;;;;4991649;28;20080;-74
2022/11/11 13:37:08;;;;;;;12.60;10.32;;;12.80;99.90;;;;;;4991559;28;20078;-74
2022/11/11 13:39:46;;;;;;;14.20;10.82;;;12.90;99.90;;;;;;4960858;28;20065;-74
2022/11/11 13:42:20;;;;;;;14.05;10.85;;;12.80;99.90;;;;;;4982763;28;20037;-74
2022/11/11 13:44:53;;;;;;;13.45;9.95;;;12.90;99.90;;;;;;4991751;28;20046;-74
2022/11/11 13:47:26;;;;;;;12.52;10.52;;;12.90;99.90;;;;;;4975698;28;20126;-74
2022/11/11 13:49:58;;;;;;;11.65;10.40;;;12.80;99.90;;;;;;4982752;28;20038;-74
2022/11/11 13:52:59;;;;;;;13.77;10.13;;;12.80;99.90;;;;;;4957325;28;20452;-74
2022/11/11 13:55:35;;;;;;;11.85;9.88;;;12.80;99.90;;;;;;4972237;28;20153;-74
2022/11/11 13:58:03;;;;;;;11.50;9.65;;;12.80;99.90;;;;;;4972990;28;20130;-74
2022/11/11 14:00:35;;;;;;;10.52;9.43;;;12.80;99.90;;;;;;4950780;28;20400;-75
2022/11/11 14:03:16;;;;;;;11.55;9.65;;;12.80;99.90;;;;;;4975050;28;20038;-75
2022/11/11 14:05:45;;;;;;;12.43;10.30;;;12.70;99.90;;;;;;4959732;28;20081;-75
2022/11/11 14:08:46;;;;;;;12.70;9.63;;;12.70;99.90;;;;;;4989630;28;20041;-74
2022/11/11 14:11:24;;;;;;;13.43;9.63;;;12.70;99.90;;;;;;4979703;28;20039;-74
2022/11/11 14:13:54;;;;;;;14.75;10.00;;;12.60;99.90;;;;;;4939995;28;20045;-74
2022/11/11 14:16:35;;;;;;;12.13;10.02;;;12.60;99.90;;;;;;4956570;28;20046;-74
2022/11/11 14:19:18;;;;;;;11.52;10.23;;;12.60;99.90;;;;;;4947540;28;20089;-74
2022/11/11 14:21:54;;;;;;;14.32;10.50;;;12.50;99.90;;;;;;4956254;28;20034;-74
2022/11/11 14:24:39;;;;;;;12.13;10.00;;;12.50;99.90;;;;;;4956513;28;20088;-74